• Join FlightAware (Why Join?)
  • Login
  • US Flag GB Flag 
19:50 EST


 

Airport Tracker/Info


-or-


 

Live Flight TrackerFlight Track Log ✈ RPA3161 ✈ 31-Jul-2013 ✈ KBTV - KDCA

Flight Track Log - Related Links

Times and Time Zones

All times are in EDT time to prevent confusion due to time zone crossing. See the RPA3161 flight status page for this flight to view local times or setup timezone preferences in your user account.

Time Position Orientation Groundspeed Altitude Reporting Facility
EDT Latitude Longitude Course Direction KTS MPH feet Rate Location/Type
12:32 44.4133 -73.1522 195° South 195 224 3,000  Level Boston Center
12:33 44.1690 -73.2616 195° South  Level FlightAware Approximate
12:33 44.3650 -73.2183 224° Southwest 220 253 5,100  Level Boston Center
12:34 44.0692 -73.2990 195° South  Level FlightAware Approximate
12:34 44.3122 -73.2903 224° Southwest 255 293 8,000  Level Boston Center
12:35 43.9688 -73.3327 194° South  Level FlightAware Approximate
12:35 44.2514 -73.3647 221° Southwest 280 322 10,700  Level Boston Center
12:36 43.8687 -73.3681 195° South  Level FlightAware Approximate
12:36 44.1864 -73.4244 213° Southwest 292 336 13,200  Level Boston Center
12:37 43.7689 -73.4055 195° South  Level FlightAware Approximate
12:37 44.1006 -73.4489 192° South 299 344 15,400  Level Boston Center
12:38 44.0067 -73.4589 184° South 320 368 17,100 1,664 Climbing Boston Center
12:39 43.9108 -73.4631 182° South 341 392 18,700 1,831 Climbing Boston Center
12:40 43.8233 -73.4675 182° South 349 402 20,700 1,785 Climbing Boston Center
12:41 43.7275 -73.4714 182° South 349 402 22,300 1,488 Climbing Boston Center
12:42 43.6253 -73.4756 182° South 354 407 23,700 1,550 Climbing Boston Center
12:43 43.5231 -73.4794 182° South 364 419 25,400 1,525 Climbing Boston Center
12:44 43.4208 -73.4864 183° South 369 425 26,800 1,311 Climbing Boston Center
12:45 43.3167 -73.4931 183° South 369 425 28,000 1,128 Climbing Boston Center
12:46 43.2311 -73.4972 182° South 374 430 29,000 1,240 Climbing Boston Center
12:47 43.0875 -73.4978 180° South 393 452 30,500 1,289 Climbing Boston Center
12:48 42.9872 -73.5044 183° South 399 459 31,600 744 Climbing Boston Center
12:49 42.8853 -73.5056 180° South 405 466 32,000 197 Climbing Boston Center
12:50 42.7517 -73.5203 185° South 405 466 32,000  Level Boston Center
12:51 42.6392 -73.5239 181° South 405 466 32,000  Level Boston Center
12:52 42.5286 -73.5303 182° South 405 466 32,000  Level Boston Center
12:53 42.4158 -73.5369 182° South 405 466 32,000  Level Boston Center
12:54 42.3181 -73.5322 178° South 399 459 32,000  Level Boston Center
12:55 42.2075 -73.5389 183° South 394 453 32,000  Level Boston Center
12:56 42.1069 -73.5958 203° Southwest 384 442 32,000  Level Boston Center
12:57 42.0061 -73.6639 207° Southwest 396 456 32,000 -51 Level Boston Center
12:58 41.9097 -73.7233 205° Southwest 396 456 31,900 -776 Descending Boston Center
13:00 41.6708 -73.8675 204° Southwest 405 466 29,400 -1,040 Descending New York Center
13:01 41.5903 -73.9192 206° Southwest 372 428 28,400 -694 Descending New York Center
13:02 41.4950 -73.9756 204° Southwest 361 415 28,000 -203 Descending New York Center
13:03 41.4058 -74.0350 207° Southwest 366 421 28,000  Level New York Center
13:04 41.3186 -74.1081 212° Southwest 371 427 28,000  Level New York Center
13:05 41.2331 -74.1839 214° Southwest 376 433 28,000  Level New York Center
13:06 41.1369 -74.2644 212° Southwest 376 433 28,000  Level New York Center
13:07 41.0514 -74.3369 213° Southwest 376 433 28,000  Level New York Center
13:08 40.9661 -74.4094 213° Southwest 376 433 28,000  Level New York Center
13:09 40.8803 -74.4844 213° Southwest 376 433 28,000  Level New York Center
13:10 40.7989 -74.5594 215° Southwest 376 433 28,000  Level New York Center
13:11 40.7169 -74.6369 216° Southwest 376 433 28,000  Level New York Center
13:12 40.6453 -74.7314 225° Southwest 371 427 28,000  Level New York Center
13:13 40.5733 -74.8256 225° Southwest 366 421 28,000  Level New York Center
13:14 40.5014 -74.9169 224° Southwest 366 421 28,000  Level New York Center
13:15 40.4294 -75.0053 223° Southwest 366 421 28,000 -149 Level New York Center
13:16 40.3572 -75.0989 225° Southwest 371 427 27,700 -1,109 Descending New York Center
13:17 40.2850 -75.1897 224° Southwest 371 427 25,800 -1,884 Descending New York Center
13:18 40.2131 -75.2775 223° Southwest 371 427 23,900 -1,820 Descending New York Center
13:19 40.1450 -75.3653 225° Southwest 366 421 22,100 -966 Descending New York Center
13:20 40.0808 -75.4589 228° Southwest 361 415 22,000 -51 Descending New York Center
13:21 40.0250 -75.5472 230° Southwest 356 410 22,000  Level New York Center
13:22 39.9650 -75.6433 231° Southwest 351 404 22,000 -197 Level New York Center
13:23 39.9028 -75.7364 229° Southwest 351 404 21,600 -545 Descending New York Center
13:24 39.8403 -75.8294 229° Southwest 346 398 20,900 -712 Descending New York Center
13:25 39.7781 -75.9222 229° Southwest 346 398 20,200 -458 Descending New York Center
13:26 39.7194 -76.0178 231° Southwest 346 398 20,000 -1,240 Descending New York Center
13:27 39.6483 -76.1175 227° Southwest 346 398 17,700 -2,083 Descending New York Center
13:28 39.5897 -76.2103 231° Southwest 353 406 15,800 -1,733 Descending New York Center
13:30 39.5224 -76.3488 212° Southwest  Level FlightAware Approximate
13:30 39.4833 -76.3833 212° Southwest 299 344 12,500  Level Potomac TRACON
13:31 39.4167 -76.4500 218° Southwest 291 335 12,000 -250 Descending Potomac TRACON
13:32 39.3500 -76.5167 218° Southwest 285 328 12,000  Level Potomac TRACON
13:33 39.2833 -76.5667 210° Southwest 289 333 12,000 -574 Level Potomac TRACON
13:34 39.2167 -76.6167 210° Southwest 289 333 10,900 -1,000 Descending Potomac TRACON
13:35 39.1500 -76.6833 218° Southwest 285 328 10,000 -429 Descending Potomac TRACON
13:36 39.1000 -76.7500 226° Southwest 267 307 10,000 -400 Level Potomac TRACON
13:37 39.0500 -76.8000 218° Southwest 230 265 9,200 -1,096 Descending Potomac TRACON
13:38 39.0000 -76.8667 226° Southwest 230 265 7,900 -1,041 Descending Potomac TRACON
13:39 38.9667 -76.9167 229° Southwest 209 241 7,100 -950 Descending Potomac TRACON
13:40 38.9667 -76.9833 270° West 179 206 6,000 -1,050 Descending Potomac TRACON
13:41 38.9833 -77.0500 288° West 192 221 5,000 -500 Descending Potomac TRACON
13:42 39.0333 -77.1000 322° Northwest 189 217 5,000 -446 Level Potomac TRACON
13:43 39.0667 -77.1333 322° Northwest 189 217 4,100 -992 Descending Potomac TRACON
13:44 39.0500 -77.2000 252° West 177 204 3,000 -550 Descending Potomac TRACON
13:45 39.0167 -77.1833 159° South 171 197 3,000 -100 Level Potomac TRACON
13:46 38.9667 -77.1500 153° Southeast 168 193 2,800 -550 Descending Potomac TRACON
13:47 38.9333 -77.1167 142° Southeast 169 194 1,900 -991 Descending Potomac TRACON
13:48 38.9000 -77.0833 142° Southeast 173 199 900 -835 Descending Potomac TRACON
13:49 38.8667 -77.0500 142° Southeast 132 152 300 -600 Descending Potomac TRACON